createdAt,value
2019-02-02T00:00:19.469Z,1.46
2019-02-02T00:00:53.273Z,1.46
2019-02-02T00:01:25.466Z,1.43
2019-02-02T00:01:56.670Z,1.48
2019-02-02T00:02:27.840Z,1.50
2019-02-02T00:02:59.228Z,1.50
2019-02-02T00:03:30.393Z,1.50
2019-02-02T00:04:01.593Z,1.49
2019-02-02T00:04:32.895Z,1.54
2019-02-02T00:05:05.765Z,1.45
2019-02-02T00:05:36.898Z,1.45
2019-02-02T00:06:09.121Z,1.57
2019-02-02T00:06:40.278Z,1.57
2019-02-02T00:07:11.466Z,1.56
2019-02-02T00:07:42.633Z,1.56
2019-02-02T00:08:13.832Z,1.54
2019-02-02T00:08:44.990Z,1.57
2019-02-02T00:09:16.200Z,1.57
2019-02-02T00:09:47.352Z,1.56
2019-02-02T00:10:18.535Z,1.55
2019-02-02T00:10:49.688Z,1.46
2019-02-02T00:11:20.892Z,1.46
2019-02-02T00:11:52.072Z,1.56
2019-02-02T00:12:23.271Z,1.56
2019-02-02T00:12:54.543Z,1.45
2019-02-02T00:13:25.759Z,1.45
2019-02-02T00:13:56.937Z,1.57
2019-02-02T00:14:28.135Z,1.57
2019-02-02T00:14:59.295Z,1.56
2019-02-02T00:15:30.488Z,1.56
2019-02-02T00:16:01.670Z,1.55
2019-02-02T00:16:33.034Z,1.53
2019-02-02T00:17:04.207Z,1.53
2019-02-02T00:17:35.375Z,1.54
2019-02-02T00:18:06.568Z,1.47
2019-02-02T00:18:37.760Z,1.47
2019-02-02T00:19:08.943Z,1.56
2019-02-02T00:19:40.115Z,1.56
2019-02-02T00:20:11.311Z,1.55
2019-02-02T00:20:42.480Z,1.53
2019-02-02T00:21:13.749Z,1.55
2019-02-02T00:21:44.927Z,1.55
2019-02-02T00:22:16.102Z,1.54
2019-02-02T00:22:47.282Z,1.54
2019-02-02T00:23:18.462Z,1.56
2019-02-02T00:23:49.648Z,1.56
2019-02-02T00:24:20.831Z,1.48
2019-02-02T00:24:52.116Z,1.57
2019-02-02T00:25:23.310Z,1.57
2019-02-02T00:25:54.487Z,1.57
2019-02-02T00:26:25.670Z,1.57
2019-02-02T00:26:56.896Z,1.57
2019-02-02T00:27:28.168Z,1.57
2019-02-02T00:27:59.393Z,1.55
2019-02-02T00:28:30.569Z,1.45
2019-02-02T00:29:01.751Z,1.45
2019-02-02T00:29:32.916Z,1.53
2019-02-02T00:30:14.872Z,1.49
2019-02-02T00:30:46.061Z,1.55
2019-02-02T00:31:17.265Z,1.49
2019-02-02T00:31:48.421Z,1.49
2019-02-02T00:32:19.619Z,1.58
2019-02-02T00:32:50.771Z,1.59
2019-02-02T00:33:21.984Z,1.59
2019-02-02T00:33:53.139Z,1.59
2019-02-02T00:34:25.339Z,1.60
2019-02-02T00:34:56.502Z,1.62
2019-02-02T00:35:27.702Z,1.62
2019-02-02T00:35:58.880Z,1.64
2019-02-02T00:36:30.073Z,1.64
2019-02-02T00:37:01.239Z,1.65
2019-02-02T00:37:32.490Z,1.63
2019-02-02T00:38:03.643Z,1.53
2019-02-02T00:38:34.858Z,1.64
2019-02-02T00:39:07.321Z,1.68
2019-02-02T00:39:38.514Z,1.57
2019-02-02T00:40:18.531Z,1.67
2019-02-02T00:40:49.767Z,1.63
2019-02-02T00:41:20.934Z,1.63
2019-02-02T00:41:52.347Z,1.61
2019-02-02T00:42:23.534Z,1.60
2019-02-02T00:42:54.746Z,1.60
2019-02-02T00:43:25.924Z,1.60
2019-02-02T00:43:57.115Z,1.60
2019-02-02T00:44:28.347Z,1.59
2019-02-02T00:44:59.563Z,1.59
2019-02-02T00:45:30.838Z,1.60
2019-02-02T00:46:02.016Z,1.60
2019-02-02T00:46:33.187Z,1.60
2019-02-02T00:47:04.476Z,1.59
2019-02-02T00:47:35.662Z,1.59
2019-02-02T00:48:06.856Z,1.58
2019-02-02T00:48:38.041Z,1.58
2019-02-02T00:49:09.223Z,1.58
2019-02-02T00:49:40.400Z,1.57
2019-02-02T00:50:13.537Z,1.56
2019-02-02T00:50:44.711Z,1.56
2019-02-02T00:51:15.879Z,1.57
2019-02-02T00:51:47.052Z,1.58
2019-02-02T00:52:18.230Z,1.56
2019-02-02T00:52:49.429Z,1.52
2019-02-02T00:53:20.613Z,1.61
2019-02-02T00:53:51.780Z,1.61
2019-02-02T00:54:22.956Z,1.60
2019-02-02T00:54:54.134Z,1.60
2019-02-02T00:55:25.316Z,1.60
2019-02-02T00:55:56.517Z,1.50
2019-02-02T00:56:27.755Z,1.59
2019-02-02T00:56:58.932Z,1.60
2019-02-02T00:57:30.130Z,1.60
2019-02-02T00:58:01.275Z,1.59
2019-02-02T00:58:32.477Z,1.60
2019-02-02T00:59:03.637Z,1.60
2019-02-02T00:59:34.848Z,1.60
2019-02-02T01:00:11.502Z,1.59
2019-02-02T01:00:42.753Z,1.60
2019-02-02T01:01:13.917Z,1.60
2019-02-02T01:01:45.121Z,1.60
2019-02-02T01:02:16.293Z,1.63
2019-02-02T01:02:47.485Z,1.64
2019-02-02T01:03:18.644Z,1.64
2019-02-02T01:03:49.839Z,1.63
2019-02-02T01:04:21.001Z,1.63
2019-02-02T01:04:52.235Z,1.62
2019-02-02T01:05:23.402Z,1.61
2019-02-02T01:05:54.587Z,1.61
2019-02-02T01:06:25.732Z,1.62
2019-02-02T01:06:56.955Z,1.61
2019-02-02T01:07:28.100Z,1.58
2019-02-02T01:07:59.402Z,1.61
2019-02-02T01:08:30.565Z,1.63
2019-02-02T01:09:03.672Z,1.63
2019-02-02T01:09:35.218Z,1.65
2019-02-02T01:10:12.026Z,1.59
2019-02-02T01:10:43.186Z,1.68
2019-02-02T01:11:14.386Z,1.68
2019-02-02T01:11:45.585Z,1.68
2019-02-02T01:12:16.752Z,1.69
2019-02-02T01:12:47.924Z,1.69
2019-02-02T01:13:19.099Z,1.68
2019-02-02T01:13:50.282Z,1.68
2019-02-02T01:14:21.468Z,1.67
2019-02-02T01:14:52.646Z,1.67
2019-02-02T01:15:23.844Z,1.57
2019-02-02T01:15:55.016Z,1.57
2019-02-02T01:16:26.283Z,1.68
2019-02-02T01:16:57.477Z,1.68
2019-02-02T01:17:28.699Z,1.65
2019-02-02T01:18:00.016Z,1.65
2019-02-02T01:18:31.159Z,1.64
2019-02-02T01:19:02.357Z,1.63
2019-02-02T01:19:33.519Z,1.55
2019-02-02T01:20:08.527Z,1.65
2019-02-02T01:20:39.692Z,1.66
2019-02-02T01:21:10.893Z,1.56
2019-02-02T01:21:42.065Z,1.65
2019-02-02T01:22:13.269Z,1.65
2019-02-02T01:22:44.431Z,1.65
2019-02-02T01:23:15.639Z,1.65
2019-02-02T01:23:46.804Z,1.65
2019-02-02T01:24:17.992Z,1.65
2019-02-02T01:24:49.189Z,1.65
2019-02-02T01:25:20.444Z,1.64
2019-02-02T01:25:51.610Z,1.68
2019-02-02T01:26:22.830Z,1.69
2019-02-02T01:26:54.020Z,1.68
2019-02-02T01:27:25.261Z,1.68
2019-02-02T01:28:04.931Z,1.68
2019-02-02T01:28:29.794Z,1.68
2019-02-02T01:29:01.055Z,1.70
2019-02-02T01:29:32.479Z,1.70
2019-02-02T01:30:09.128Z,1.70
2019-02-02T01:30:40.375Z,1.71
2019-02-02T01:31:11.758Z,1.71
2019-02-02T01:31:44.152Z,1.69
2019-02-02T01:32:15.358Z,1.69
2019-02-02T01:32:46.517Z,1.64
2019-02-02T01:33:17.735Z,1.67
2019-02-02T01:33:48.890Z,1.69
2019-02-02T01:34:20.098Z,1.70
2019-02-02T01:34:51.250Z,1.70
2019-02-02T01:35:22.449Z,1.68
2019-02-02T01:35:53.623Z,1.52
2019-02-02T01:36:24.830Z,1.68
2019-02-02T01:36:56.029Z,1.68
2019-02-02T01:37:27.289Z,1.68
2019-02-02T01:37:58.443Z,1.68
2019-02-02T01:38:29.773Z,1.68
2019-02-02T01:39:00.929Z,1.67
2019-02-02T01:39:32.340Z,1.67
2019-02-02T01:40:11.298Z,1.50
2019-02-02T01:40:42.498Z,1.67
2019-02-02T01:41:13.636Z,1.67
2019-02-02T01:41:44.853Z,1.68
2019-02-02T01:42:16.022Z,1.68
2019-02-02T01:42:47.254Z,1.68
2019-02-02T01:43:18.516Z,1.69
2019-02-02T01:43:49.738Z,1.70
2019-02-02T01:44:20.945Z,1.70
2019-02-02T01:44:52.172Z,1.62
2019-02-02T01:45:26.403Z,1.62
2019-02-02T01:45:57.642Z,1.72
2019-02-02T01:46:28.880Z,1.72
2019-02-02T01:47:00.109Z,1.72
2019-02-02T01:47:31.364Z,1.68
2019-02-02T01:48:02.529Z,1.72
2019-02-02T01:48:34.736Z,1.72
2019-02-02T01:49:05.885Z,1.73
2019-02-02T01:49:37.099Z,1.74
2019-02-02T01:50:12.657Z,1.74
2019-02-02T01:50:43.882Z,1.71
2019-02-02T01:51:15.045Z,1.71
2019-02-02T01:51:46.250Z,1.71
2019-02-02T01:52:17.525Z,1.71
2019-02-02T01:52:48.745Z,1.71
2019-02-02T01:53:19.983Z,1.72
2019-02-02T01:53:52.275Z,1.72
2019-02-02T01:54:23.491Z,1.72
2019-02-02T01:54:54.739Z,1.72
2019-02-02T01:55:25.992Z,1.72
2019-02-02T01:55:57.225Z,1.72
2019-02-02T01:56:28.480Z,1.73
2019-02-02T01:57:00.012Z,1.71
2019-02-02T01:57:31.218Z,1.64
2019-02-02T01:58:02.438Z,1.64
2019-02-02T01:58:33.644Z,1.73
2019-02-02T01:59:04.918Z,1.74
2019-02-02T01:59:36.212Z,1.74
2019-02-02T02:00:12.756Z,1.74
2019-02-02T02:00:43.964Z,1.74
2019-02-02T02:01:15.154Z,1.74
2019-02-02T02:01:46.366Z,1.74
2019-02-02T02:02:17.510Z,1.74
2019-02-02T02:02:48.723Z,1.65
2019-02-02T02:03:19.883Z,1.66
2019-02-02T02:03:52.097Z,1.74
2019-02-02T02:04:23.259Z,1.74
2019-02-02T02:04:54.445Z,1.67
2019-02-02T02:05:25.599Z,1.75
2019-02-02T02:05:56.773Z,1.76
2019-02-02T02:06:27.989Z,1.76
2019-02-02T02:06:59.352Z,1.76
2019-02-02T02:07:30.513Z,1.76
2019-02-02T02:08:01.683Z,1.71
2019-02-02T02:08:33.074Z,1.71
2019-02-02T02:09:04.848Z,1.74
2019-02-02T02:09:37.024Z,1.74
2019-02-02T02:10:17.116Z,1.73
2019-02-02T02:10:49.313Z,1.73
2019-02-02T02:11:20.482Z,1.73
2019-02-02T02:11:51.658Z,1.71
2019-02-02T02:12:22.838Z,1.71
2019-02-02T02:12:54.132Z,1.72
2019-02-02T02:13:25.345Z,1.73
2019-02-02T02:13:56.526Z,1.73
2019-02-02T02:14:27.725Z,1.75
2019-02-02T02:14:59.226Z,1.77
2019-02-02T02:15:30.386Z,1.77
2019-02-02T02:16:01.593Z,1.77
2019-02-02T02:16:33.615Z,1.80
2019-02-02T02:17:04.803Z,1.82
2019-02-02T02:17:36.002Z,1.82
2019-02-02T02:18:07.190Z,1.82
2019-02-02T02:18:38.562Z,1.83
2019-02-02T02:19:09.728Z,1.83
2019-02-02T02:19:40.933Z,1.77
2019-02-02T02:20:14.695Z,1.84
2019-02-02T02:20:45.923Z,1.84
2019-02-02T02:21:17.095Z,1.83
2019-02-02T02:21:48.289Z,1.83
2019-02-02T02:22:19.501Z,1.83
2019-02-02T02:22:50.707Z,1.71
2019-02-02T02:23:21.886Z,1.80
2019-02-02T02:23:53.097Z,1.69
2019-02-02T02:24:24.250Z,1.69
2019-02-02T02:24:55.463Z,1.78
2019-02-02T02:25:26.593Z,1.76
2019-02-02T02:25:57.812Z,1.75
2019-02-02T02:26:28.984Z,1.73
2019-02-02T02:27:00.252Z,1.73
2019-02-02T02:27:31.408Z,1.73
2019-02-02T02:28:02.603Z,1.72
2019-02-02T02:28:33.750Z,1.72
2019-02-02T02:29:04.953Z,1.71
2019-02-02T02:29:36.113Z,1.71
2019-02-02T02:30:12.201Z,1.69
2019-02-02T02:30:43.367Z,1.70
2019-02-02T02:31:14.620Z,1.70
2019-02-02T02:31:45.863Z,1.70
2019-02-02T02:32:17.110Z,1.69
2019-02-02T02:32:48.386Z,1.69
2019-02-02T02:33:20.561Z,1.68
2019-02-02T02:33:51.747Z,1.69
2019-02-02T02:34:22.945Z,1.69
2019-02-02T02:34:54.119Z,1.69
2019-02-02T02:35:25.301Z,1.70
2019-02-02T02:35:56.459Z,1.70
2019-02-02T02:36:27.811Z,1.70
2019-02-02T02:36:58.993Z,1.71
2019-02-02T02:37:30.197Z,1.70
2019-02-02T02:38:01.389Z,1.68
2019-02-02T02:38:32.538Z,1.68
2019-02-02T02:39:06.475Z,1.67
2019-02-02T02:39:37.648Z,1.67
2019-02-02T02:40:13.106Z,1.67
2019-02-02T02:40:44.260Z,1.67
2019-02-02T02:41:15.446Z,1.67
2019-02-02T02:41:46.598Z,1.65
2019-02-02T02:42:17.759Z,1.65
2019-02-02T02:42:49.020Z,1.64
2019-02-02T02:43:20.188Z,1.64
2019-02-02T02:43:51.345Z,1.63
2019-02-02T02:44:22.554Z,1.63
2019-02-02T02:44:53.722Z,1.63
2019-02-02T02:45:24.912Z,1.63
2019-02-02T02:45:56.070Z,1.64
2019-02-02T02:46:27.270Z,1.63
2019-02-02T02:46:58.414Z,1.64
2019-02-02T02:47:29.665Z,1.57
2019-02-02T02:48:00.874Z,1.62
2019-02-02T02:48:32.041Z,1.62
2019-02-02T02:49:03.323Z,1.61
2019-02-02T02:49:34.515Z,1.61
2019-02-02T02:50:09.998Z,1.60
2019-02-02T02:50:41.193Z,1.60
2019-02-02T02:51:12.554Z,1.61
2019-02-02T02:51:43.751Z,1.63
2019-02-02T02:52:14.939Z,1.64
2019-02-02T02:52:46.103Z,1.64
2019-02-02T02:53:17.293Z,1.64
2019-02-02T02:53:48.493Z,1.65
2019-02-02T02:54:19.661Z,1.65
2019-02-02T02:54:50.858Z,1.56
2019-02-02T02:55:22.019Z,1.56
2019-02-02T02:55:53.245Z,1.65
2019-02-02T02:56:24.426Z,1.66
2019-02-02T02:56:55.605Z,1.59
2019-02-02T02:57:27.794Z,1.65
2019-02-02T02:57:58.962Z,1.65
2019-02-02T02:58:40.755Z,1.65
2019-02-02T02:59:03.231Z,1.65
2019-02-02T02:59:34.408Z,1.61
2019-02-02T03:00:23.322Z,1.63
2019-02-02T03:00:54.490Z,1.63
2019-02-02T03:01:25.797Z,1.62
2019-02-02T03:01:57.046Z,1.62
2019-02-02T03:02:28.302Z,1.61
2019-02-02T03:02:59.786Z,1.60
2019-02-02T03:03:31.001Z,1.51
2019-02-02T03:04:02.325Z,1.60
2019-02-02T03:04:34.600Z,1.60
2019-02-02T03:05:09.740Z,1.58
2019-02-02T03:05:40.954Z,1.59
2019-02-02T03:06:12.139Z,1.58
2019-02-02T03:06:43.385Z,1.59
2019-02-02T03:07:14.554Z,1.58
2019-02-02T03:07:47.465Z,1.57
2019-02-02T03:08:18.641Z,1.57
2019-02-02T03:08:49.830Z,1.57
2019-02-02T03:09:20.999Z,1.57
2019-02-02T03:09:52.169Z,1.59
2019-02-02T03:10:24.651Z,1.59
2019-02-02T03:10:55.844Z,1.60
2019-02-02T03:11:27.115Z,1.59
2019-02-02T03:11:58.399Z,1.57
2019-02-02T03:12:29.763Z,1.57
2019-02-02T03:13:00.991Z,1.57
2019-02-02T03:13:32.308Z,1.56
2019-02-02T03:14:03.500Z,1.56
2019-02-02T03:14:34.682Z,1.55
2019-02-02T03:15:10.472Z,1.55
2019-02-02T03:15:41.732Z,1.55
2019-02-02T03:16:13.043Z,1.55
2019-02-02T03:16:44.262Z,1.53
2019-02-02T03:17:15.488Z,1.53
2019-02-02T03:17:48.214Z,1.41
2019-02-02T03:18:19.559Z,1.51
2019-02-02T03:18:51.837Z,1.50
2019-02-02T03:19:22.990Z,1.51
2019-02-02T03:19:54.184Z,1.50
2019-02-02T03:20:25.350Z,1.51
2019-02-02T03:20:56.612Z,1.49
2019-02-02T03:21:27.764Z,1.49
2019-02-02T03:21:59.217Z,1.50
2019-02-02T03:22:30.373Z,1.49
2019-02-02T03:23:01.567Z,1.48
2019-02-02T03:23:32.737Z,1.49
2019-02-02T03:24:04.059Z,1.49
2019-02-02T03:24:35.321Z,1.47
2019-02-02T03:25:16.148Z,1.47
2019-02-02T03:25:47.381Z,1.45
2019-02-02T03:26:18.631Z,1.47
2019-02-02T03:26:49.873Z,1.47
2019-02-02T03:27:21.109Z,1.50
2019-02-02T03:27:52.341Z,1.40
2019-02-02T03:28:23.572Z,1.40
2019-02-02T03:28:54.782Z,1.48
2019-02-02T03:29:25.937Z,1.48
2019-02-02T03:29:58.136Z,1.49
2019-02-02T03:30:29.360Z,1.48
2019-02-02T03:31:00.576Z,1.50
2019-02-02T03:31:31.775Z,1.51
2019-02-02T03:32:03.046Z,1.51
2019-02-02T03:32:34.202Z,1.52
2019-02-02T03:33:05.418Z,1.52
2019-02-02T03:33:36.601Z,1.51
2019-02-02T03:34:07.826Z,1.51
2019-02-02T03:34:39.060Z,1.50
2019-02-02T03:35:12.796Z,1.38
2019-02-02T03:35:45.008Z,1.49
2019-02-02T03:36:16.204Z,1.49
2019-02-02T03:36:47.535Z,1.49
2019-02-02T03:37:18.673Z,1.48
2019-02-02T03:37:50.479Z,1.49
2019-02-02T03:38:21.633Z,1.48
2019-02-02T03:38:53.879Z,1.50
2019-02-02T03:39:25.103Z,1.49
2019-02-02T03:39:56.325Z,1.50
2019-02-02T03:40:27.499Z,1.49
2019-02-02T03:40:58.888Z,1.49
2019-02-02T03:41:30.050Z,1.48
2019-02-02T03:42:01.272Z,1.48
2019-02-02T03:42:32.836Z,1.49
2019-02-02T03:43:04.027Z,1.49
2019-02-02T03:43:35.179Z,1.51
2019-02-02T03:44:06.369Z,1.50
2019-02-02T03:44:37.518Z,1.50
2019-02-02T03:45:12.805Z,1.51
2019-02-02T03:45:43.958Z,1.51
2019-02-02T03:46:15.168Z,1.52
2019-02-02T03:46:46.321Z,1.51
2019-02-02T03:47:17.529Z,1.52
2019-02-02T03:47:49.166Z,1.51
2019-02-02T03:48:20.375Z,1.54
2019-02-02T03:48:51.553Z,1.54
2019-02-02T03:49:22.743Z,1.44
2019-02-02T03:49:53.937Z,1.44
2019-02-02T03:50:25.188Z,1.53
2019-02-02T03:50:56.375Z,1.54
2019-02-02T03:51:27.554Z,1.56
2019-02-02T03:51:58.738Z,1.55
2019-02-02T03:52:29.935Z,1.58
2019-02-02T03:53:01.146Z,1.59
2019-02-02T03:53:32.432Z,1.51
2019-02-02T03:54:08.796Z,1.51
2019-02-02T03:54:36.695Z,1.60
2019-02-02T03:55:11.987Z,1.60
2019-02-02T03:55:44.162Z,1.59
2019-02-02T03:56:15.356Z,1.59
2019-02-02T03:56:46.575Z,1.59
2019-02-02T03:57:17.786Z,1.58
2019-02-02T03:57:48.978Z,1.58
2019-02-02T03:58:20.189Z,1.58
2019-02-02T03:58:51.908Z,1.57
2019-02-02T03:59:23.059Z,1.58
2019-02-02T03:59:54.245Z,1.57
2019-02-02T04:00:25.404Z,1.58
2019-02-02T04:00:56.623Z,1.57
2019-02-02T04:01:29.961Z,1.57
2019-02-02T04:02:00.874Z,1.57
2019-02-02T04:02:32.085Z,1.58
2019-02-02T04:03:03.280Z,1.58
2019-02-02T04:03:34.429Z,1.58
2019-02-02T04:04:05.624Z,1.59
2019-02-02T04:04:36.858Z,1.60
2019-02-02T04:05:12.282Z,1.59
2019-02-02T04:05:43.477Z,1.59
2019-02-02T04:06:14.748Z,1.61
2019-02-02T04:06:46.099Z,1.61
2019-02-02T04:07:17.310Z,1.60
2019-02-02T04:07:48.480Z,1.62
2019-02-02T04:08:19.687Z,1.62
2019-02-02T04:08:50.841Z,1.62
2019-02-02T04:09:22.045Z,1.64
2019-02-02T04:09:53.206Z,1.63
2019-02-02T04:10:24.423Z,1.63
2019-02-02T04:10:55.601Z,1.65
2019-02-02T04:11:26.877Z,1.65
2019-02-02T04:11:58.032Z,1.63
2019-02-02T04:12:29.373Z,1.65
2019-02-02T04:13:00.544Z,1.65
2019-02-02T04:13:32.762Z,1.65
2019-02-02T04:14:03.875Z,1.66
2019-02-02T04:14:35.088Z,1.64
2019-02-02T04:15:08.739Z,1.66
2019-02-02T04:15:39.948Z,1.66
2019-02-02T04:16:11.224Z,1.64
2019-02-02T04:16:42.513Z,1.65
2019-02-02T04:17:13.798Z,1.65
2019-02-02T04:17:45.083Z,1.66
2019-02-02T04:18:16.308Z,1.66
2019-02-02T04:18:47.529Z,1.64
2019-02-02T04:19:18.727Z,1.67
2019-02-02T04:19:49.870Z,1.69
2019-02-02T04:20:21.972Z,1.69
2019-02-02T04:20:53.130Z,1.70
2019-02-02T04:21:24.354Z,1.70
2019-02-02T04:21:55.502Z,1.72
2019-02-02T04:22:26.718Z,1.74
2019-02-02T04:22:57.891Z,1.74
2019-02-02T04:23:30.100Z,1.76
2019-02-02T04:24:01.764Z,1.76
2019-02-02T04:24:33.031Z,1.76
2019-02-02T04:25:06.102Z,1.75
2019-02-02T04:25:37.307Z,1.75
2019-02-02T04:26:08.465Z,1.74
2019-02-02T04:26:39.655Z,1.74
2019-02-02T04:27:10.857Z,1.74
2019-02-02T04:27:42.058Z,1.74
2019-02-02T04:28:13.224Z,1.77
2019-02-02T04:28:44.428Z,1.68
2019-02-02T04:29:17.765Z,1.68
2019-02-02T04:29:49.665Z,1.77
2019-02-02T04:30:24.031Z,1.77
2019-02-02T04:30:55.459Z,1.76
2019-02-02T04:31:26.631Z,1.76
2019-02-02T04:31:57.828Z,1.76
2019-02-02T04:32:28.980Z,1.75
2019-02-02T04:33:00.204Z,1.75
2019-02-02T04:33:31.356Z,1.70
2019-02-02T04:34:02.854Z,1.76
2019-02-02T04:34:34.030Z,1.74
2019-02-02T04:35:08.354Z,1.74
2019-02-02T04:35:39.606Z,1.74
2019-02-02T04:36:10.867Z,1.75
2019-02-02T04:36:42.048Z,1.75
2019-02-02T04:37:13.263Z,1.74
2019-02-02T04:37:44.425Z,1.74
2019-02-02T04:38:15.668Z,1.73
2019-02-02T04:38:46.885Z,1.76
2019-02-02T04:39:18.125Z,1.76
2019-02-02T04:39:49.319Z,1.76
2019-02-02T04:40:20.502Z,1.76
2019-02-02T04:40:51.685Z,1.76
2019-02-02T04:41:22.863Z,1.76
2019-02-02T04:41:54.025Z,1.78
2019-02-02T04:42:25.207Z,1.77
2019-02-02T04:42:56.376Z,1.77
2019-02-02T04:43:27.660Z,1.76
2019-02-02T04:43:58.826Z,1.78
2019-02-02T04:44:30.009Z,1.72
2019-02-02T04:45:01.175Z,1.72
2019-02-02T04:45:32.430Z,1.82
2019-02-02T04:46:03.641Z,1.84
2019-02-02T04:46:34.890Z,1.84
2019-02-02T04:47:06.081Z,1.87
2019-02-02T04:47:37.262Z,1.87
2019-02-02T04:48:08.452Z,1.89
2019-02-02T04:48:39.626Z,1.89
2019-02-02T04:49:10.804Z,1.91
2019-02-02T04:49:42.012Z,1.95
2019-02-02T04:50:16.980Z,1.87
2019-02-02T04:50:48.181Z,1.87
2019-02-02T04:51:19.339Z,1.86
2019-02-02T04:51:50.550Z,1.83
2019-02-02T04:52:21.704Z,1.83
2019-02-02T04:52:52.886Z,1.94
2019-02-02T04:53:24.049Z,1.84
2019-02-02T04:53:57.953Z,1.84
2019-02-02T04:54:28.307Z,1.95
2019-02-02T04:54:59.513Z,1.95
2019-02-02T04:55:30.679Z,1.97
2019-02-02T04:56:01.893Z,1.97
2019-02-02T04:56:33.039Z,1.98
2019-02-02T04:57:04.335Z,1.99
2019-02-02T04:57:35.481Z,2.00
2019-02-02T04:58:06.683Z,2.00
2019-02-02T04:58:37.845Z,2.00
2019-02-02T04:59:09.044Z,2.01
2019-02-02T04:59:40.220Z,1.99
2019-02-02T05:00:23.726Z,1.99
2019-02-02T05:00:54.868Z,2.00
2019-02-02T05:01:26.076Z,2.04
2019-02-02T05:01:57.235Z,2.05
2019-02-02T05:02:30.392Z,2.05
2019-02-02T05:03:01.490Z,2.04
2019-02-02T05:03:32.970Z,1.95
2019-02-02T05:04:04.192Z,2.06
2019-02-02T05:04:35.400Z,1.97
2019-02-02T05:05:11.180Z,2.08
2019-02-02T05:05:42.361Z,2.08
2019-02-02T05:06:13.566Z,2.08
2019-02-02T05:06:44.755Z,2.07
2019-02-02T05:07:16.005Z,2.08
2019-02-02T05:07:47.131Z,2.07
2019-02-02T05:08:18.324Z,2.06
2019-02-02T05:08:49.480Z,2.03
2019-02-02T05:09:20.687Z,1.92
2019-02-02T05:09:51.868Z,2.02
2019-02-02T05:10:23.499Z,2.01
2019-02-02T05:10:54.735Z,1.92
2019-02-02T05:11:25.988Z,2.00
2019-02-02T05:11:57.224Z,2.00
2019-02-02T05:12:28.454Z,2.00
2019-02-02T05:13:00.003Z,1.99
2019-02-02T05:13:31.239Z,2.00
2019-02-02T05:14:02.603Z,2.03
2019-02-02T05:14:33.869Z,2.01
2019-02-02T05:15:06.466Z,2.01
2019-02-02T05:15:37.615Z,2.00
2019-02-02T05:16:08.837Z,2.00
2019-02-02T05:16:39.978Z,1.99
2019-02-02T05:17:12.210Z,1.97
2019-02-02T05:17:43.354Z,1.98
2019-02-02T05:18:14.562Z,1.98
2019-02-02T05:18:45.714Z,1.98
2019-02-02T05:19:16.984Z,2.00
2019-02-02T05:19:48.117Z,2.01
2019-02-02T05:20:19.530Z,2.03
2019-02-02T05:20:50.685Z,2.03
2019-02-02T05:21:21.897Z,2.03
2019-02-02T05:21:53.034Z,1.93
2019-02-02T05:22:24.239Z,2.02
2019-02-02T05:22:55.401Z,2.05
2019-02-02T05:23:26.644Z,2.06
2019-02-02T05:23:57.803Z,2.06
2019-02-02T05:24:29.222Z,2.05
2019-02-02T05:25:00.399Z,2.05
2019-02-02T05:25:31.619Z,2.04
2019-02-02T05:26:03.056Z,1.93
2019-02-02T05:26:34.325Z,2.05
2019-02-02T05:27:05.607Z,2.04
2019-02-02T05:27:36.850Z,2.02
2019-02-02T05:28:08.125Z,2.02
2019-02-02T05:28:39.354Z,2.02
2019-02-02T05:29:10.577Z,2.01
2019-02-02T05:29:41.962Z,2.02
2019-02-02T05:30:28.847Z,2.02
2019-02-02T05:31:00.003Z,2.02
2019-02-02T05:31:31.203Z,2.01
2019-02-02T05:32:02.429Z,2.01
2019-02-02T05:32:33.636Z,2.02
2019-02-02T05:33:04.788Z,1.94
2019-02-02T05:33:36.002Z,1.92
2019-02-02T05:34:07.211Z,2.01
2019-02-02T05:34:38.490Z,2.01
2019-02-02T05:35:09.791Z,2.01
2019-02-02T05:35:41.035Z,2.02
2019-02-02T05:36:12.280Z,2.02
2019-02-02T05:36:43.577Z,2.03
2019-02-02T05:37:14.821Z,2.02
2019-02-02T05:37:46.036Z,2.02
2019-02-02T05:38:18.186Z,2.01
2019-02-02T05:38:49.387Z,2.04
2019-02-02T05:39:20.555Z,1.97
2019-02-02T05:39:51.765Z,1.97
2019-02-02T05:40:22.959Z,2.05
2019-02-02T05:40:54.267Z,2.06
2019-02-02T05:41:25.626Z,2.06
2019-02-02T05:41:56.818Z,2.08
2019-02-02T05:42:28.017Z,2.08
2019-02-02T05:42:59.337Z,2.07
2019-02-02T05:43:30.539Z,1.98
2019-02-02T05:44:01.726Z,2.09
2019-02-02T05:44:33.007Z,2.09
2019-02-02T05:45:07.696Z,2.00
2019-02-02T05:45:38.878Z,1.99
2019-02-02T05:46:10.057Z,2.10
2019-02-02T05:46:41.242Z,2.10
2019-02-02T05:47:12.474Z,2.10
2019-02-02T05:47:43.667Z,2.10
2019-02-02T05:48:14.859Z,2.10
2019-02-02T05:48:46.044Z,2.09
2019-02-02T05:49:17.225Z,2.09
2019-02-02T05:49:49.626Z,2.10
2019-02-02T05:50:22.219Z,2.08
2019-02-02T05:50:53.376Z,2.08
2019-02-02T05:51:24.631Z,2.08
2019-02-02T05:51:55.782Z,2.08
2019-02-02T05:52:26.979Z,2.09
2019-02-02T05:52:58.155Z,2.08
2019-02-02T05:53:29.389Z,2.09
2019-02-02T05:54:00.550Z,2.09
2019-02-02T05:54:31.741Z,2.08
2019-02-02T05:55:09.420Z,2.10
2019-02-02T05:55:40.625Z,2.10
2019-02-02T05:56:11.779Z,2.09
2019-02-02T05:56:42.967Z,2.11
2019-02-02T05:57:14.124Z,2.13
2019-02-02T05:57:45.334Z,2.04
2019-02-02T05:58:16.487Z,2.13
2019-02-02T05:58:47.699Z,2.18
2019-02-02T05:59:18.915Z,2.20
2019-02-02T05:59:52.813Z,2.24
2019-02-02T06:00:37.662Z,2.23
2019-02-02T06:01:10.772Z,2.23
2019-02-02T06:01:41.961Z,2.23
2019-02-02T06:02:13.140Z,2.20
2019-02-02T06:02:44.329Z,2.24
2019-02-02T06:03:15.495Z,2.24
2019-02-02T06:03:46.677Z,2.25
2019-02-02T06:04:17.936Z,2.24
2019-02-02T06:04:49.124Z,2.24
2019-02-02T06:05:20.305Z,2.14
2019-02-02T06:05:51.532Z,2.25
2019-02-02T06:06:22.756Z,2.24
2019-02-02T06:06:53.940Z,2.23
2019-02-02T06:07:25.096Z,2.23
2019-02-02T06:07:56.260Z,2.13
2019-02-02T06:08:27.414Z,2.13
2019-02-02T06:08:58.597Z,2.16
2019-02-02T06:09:29.740Z,2.20
2019-02-02T06:10:00.895Z,2.21
2019-02-02T06:10:32.337Z,2.22
2019-02-02T06:11:03.707Z,2.23
2019-02-02T06:11:34.865Z,2.15
2019-02-02T06:12:06.075Z,2.16
2019-02-02T06:12:37.225Z,2.16
2019-02-02T06:13:08.441Z,2.25
2019-02-02T06:13:39.597Z,2.25
2019-02-02T06:14:10.811Z,2.27
2019-02-02T06:14:42.066Z,2.28
2019-02-02T06:15:13.277Z,2.28
2019-02-02T06:15:44.486Z,2.17
2019-02-02T06:16:15.670Z,2.25
2019-02-02T06:16:46.856Z,2.25
2019-02-02T06:17:18.131Z,2.26
2019-02-02T06:17:49.363Z,2.25
2019-02-02T06:18:20.630Z,2.17
2019-02-02T06:18:51.880Z,2.17
2019-02-02T06:19:23.086Z,2.18
2019-02-02T06:19:54.342Z,2.27
2019-02-02T06:20:25.571Z,2.12
2019-02-02T06:20:56.775Z,2.26
2019-02-02T06:21:27.938Z,2.25
2019-02-02T06:21:59.350Z,2.25
2019-02-02T06:22:30.486Z,2.26
2019-02-02T06:23:01.684Z,2.26
2019-02-02T06:23:32.833Z,2.15
2019-02-02T06:24:04.042Z,2.15
2019-02-02T06:24:35.204Z,2.26
2019-02-02T06:25:10.121Z,2.26
2019-02-02T06:25:41.276Z,2.29
2019-02-02T06:26:12.487Z,2.29
2019-02-02T06:26:43.660Z,2.11
2019-02-02T06:27:14.848Z,2.29
2019-02-02T06:27:46.015Z,2.29
2019-02-02T06:28:17.225Z,2.29
2019-02-02T06:28:48.375Z,2.28
2019-02-02T06:29:19.607Z,2.30
2019-02-02T06:29:50.765Z,2.29
2019-02-02T06:30:24.076Z,2.29
2019-02-02T06:30:55.239Z,2.29
2019-02-02T06:31:26.421Z,2.23
2019-02-02T06:31:57.583Z,2.28
2019-02-02T06:32:28.783Z,2.29
2019-02-02T06:32:59.952Z,2.26
2019-02-02T06:33:31.147Z,2.26
2019-02-02T06:34:02.467Z,2.33
2019-02-02T06:34:33.780Z,2.34
2019-02-02T06:35:08.884Z,2.35
2019-02-02T06:35:40.143Z,2.36
2019-02-02T06:36:11.310Z,2.36
2019-02-02T06:36:42.562Z,2.36
2019-02-02T06:37:13.747Z,2.35
2019-02-02T06:37:44.984Z,2.35
2019-02-02T06:38:16.130Z,2.35
2019-02-02T06:38:47.344Z,2.37
2019-02-02T06:39:18.506Z,2.27
2019-02-02T06:39:49.726Z,2.27
2019-02-02T06:40:20.928Z,2.34
2019-02-02T06:40:52.136Z,2.34
2019-02-02T06:41:23.318Z,2.32
2019-02-02T06:41:54.499Z,2.34
2019-02-02T06:42:25.773Z,2.34
2019-02-02T06:42:56.982Z,2.34
2019-02-02T06:43:30.213Z,2.37
2019-02-02T06:44:01.299Z,2.37
2019-02-02T06:44:32.495Z,2.39
2019-02-02T06:45:11.974Z,2.39
2019-02-02T06:45:43.175Z,2.41
2019-02-02T06:46:14.394Z,2.43
2019-02-02T06:46:45.553Z,2.43
2019-02-02T06:47:16.779Z,2.44
2019-02-02T06:47:47.935Z,2.43
2019-02-02T06:48:19.142Z,2.43
2019-02-02T06:48:50.301Z,2.39
2019-02-02T06:49:21.511Z,2.43
2019-02-02T06:49:52.667Z,2.42
2019-02-02T06:50:23.853Z,2.42
2019-02-02T06:50:55.003Z,2.43
2019-02-02T06:51:26.223Z,2.43
2019-02-02T06:51:57.372Z,2.43
2019-02-02T06:52:28.564Z,2.35
2019-02-02T06:53:00.590Z,2.43
2019-02-02T06:53:31.782Z,2.43
2019-02-02T06:54:03.237Z,2.43
2019-02-02T06:54:34.469Z,2.45
2019-02-02T06:55:09.324Z,2.45
2019-02-02T06:55:40.536Z,2.45
2019-02-02T06:56:11.686Z,2.44
2019-02-02T06:56:42.914Z,2.41
2019-02-02T06:57:14.082Z,2.40
2019-02-02T06:57:45.306Z,2.40
2019-02-02T06:58:16.472Z,2.24
2019-02-02T06:58:47.666Z,2.38
2019-02-02T06:59:18.848Z,2.38
2019-02-02T06:59:50.043Z,2.38
2019-02-02T07:00:26.728Z,2.40